createdAt,value
2024-04-25T00:00:15.243Z,39
2024-04-25T00:05:28.198Z,26
2024-04-25T00:10:40.902Z,30
2024-04-25T00:15:53.691Z,34
2024-04-25T00:21:06.630Z,31
2024-04-25T00:26:19.585Z,32
2024-04-25T00:31:32.390Z,37
2024-04-25T00:36:45.286Z,34
2024-04-25T00:41:58.385Z,36
2024-04-25T00:47:10.234Z,31
2024-04-25T00:52:23.283Z,28
2024-04-25T00:57:36.012Z,31
2024-04-25T01:02:48.880Z,29
2024-04-25T01:08:01.748Z,31
2024-04-25T01:13:14.545Z,29
2024-04-25T01:18:27.324Z,28
2024-04-25T01:23:51.191Z,26
2024-04-25T01:29:04.079Z,30
2024-04-25T01:34:16.924Z,29
2024-04-25T01:39:29.821Z,31
2024-04-25T01:44:42.535Z,31
2024-04-25T01:49:55.513Z,34
2024-04-25T01:55:08.401Z,36
2024-04-25T02:00:21.188Z,39
2024-04-25T02:05:34.015Z,33
2024-04-25T02:10:46.850Z,34
2024-04-25T02:16:05.774Z,33
2024-04-25T02:21:18.450Z,28
2024-04-25T02:26:31.476Z,26
2024-04-25T02:31:44.256Z,28
2024-04-25T02:36:56.990Z,36
2024-04-25T02:42:09.848Z,36
2024-04-25T02:47:22.519Z,39
2024-04-25T02:52:35.682Z,36
2024-04-25T02:57:48.639Z,34
2024-04-25T03:03:01.443Z,37
2024-04-25T03:08:14.569Z,33
2024-04-25T03:13:27.431Z,36
2024-04-25T03:18:40.032Z,37
2024-04-25T03:23:52.761Z,37
2024-04-25T03:29:05.635Z,31
2024-04-25T03:34:18.495Z,35
2024-04-25T03:39:31.396Z,35
2024-04-25T03:44:44.126Z,34
2024-04-25T03:49:56.956Z,25
2024-04-25T03:55:09.881Z,34
2024-04-25T04:00:22.634Z,37
2024-04-25T04:05:35.354Z,34
2024-04-25T04:10:48.242Z,35
2024-04-25T04:16:01.049Z,42
2024-04-25T04:21:13.871Z,38
2024-04-25T04:26:26.782Z,43
2024-04-25T04:31:39.524Z,43
2024-04-25T04:36:52.231Z,36
2024-04-25T04:42:04.961Z,40
2024-04-25T04:47:17.800Z,35
2024-04-25T04:52:30.580Z,32
2024-04-25T04:57:43.537Z,34
2024-04-25T05:02:55.193Z,34
2024-04-25T05:08:08.072Z,35
2024-04-25T05:13:21.028Z,44
2024-04-25T05:18:33.819Z,41
2024-04-25T05:23:46.636Z,30
2024-04-25T05:28:59.540Z,36
2024-04-25T05:34:18.371Z,33
2024-04-25T05:39:31.079Z,38
2024-04-25T05:44:44.054Z,54
2024-04-25T05:49:56.951Z,38
2024-04-25T05:55:09.874Z,47
2024-04-25T06:00:22.605Z,58
2024-04-25T06:05:35.383Z,55
2024-04-25T06:10:48.485Z,41
2024-04-25T06:16:01.367Z,43
2024-04-25T06:21:14.251Z,42
2024-04-25T06:26:27.020Z,43
2024-04-25T06:31:39.789Z,48
2024-04-25T06:36:52.655Z,41
2024-04-25T06:42:05.681Z,43
2024-04-25T06:47:18.509Z,62
2024-04-25T06:52:31.344Z,59
2024-04-25T06:57:44.383Z,60
2024-04-25T07:02:57.243Z,64
2024-04-25T07:08:10.070Z,55
2024-04-25T07:13:22.939Z,61
2024-04-25T07:18:35.926Z,47
2024-04-25T07:23:48.794Z,52
2024-04-25T07:29:01.650Z,55
2024-04-25T07:34:14.306Z,58
2024-04-25T07:39:27.168Z,52
2024-04-25T07:44:40.170Z,57
2024-04-25T07:49:53.005Z,61
2024-04-25T07:55:05.902Z,63
2024-04-25T08:00:18.952Z,73
2024-04-25T08:05:31.798Z,67
2024-04-25T08:10:44.602Z,64
2024-04-25T08:15:57.448Z,59
2024-04-25T08:21:09.328Z,64
2024-04-25T08:26:21.903Z,65
2024-04-25T08:31:34.943Z,51
2024-04-25T08:36:47.716Z,57
2024-04-25T08:42:00.493Z,52
2024-04-25T08:47:13.583Z,76
2024-04-25T08:52:26.522Z,72
2024-04-25T08:57:39.181Z,76
2024-04-25T09:02:51.992Z,73
2024-04-25T09:08:04.596Z,58
2024-04-25T09:13:17.428Z,73
2024-04-25T09:18:30.128Z,63
2024-04-25T09:23:42.982Z,70
2024-04-25T09:28:55.664Z,72
2024-04-25T09:34:08.321Z,69
2024-04-25T09:39:21.068Z,75
2024-04-25T09:44:33.866Z,70
2024-04-25T09:49:46.674Z,64
2024-04-25T09:54:59.536Z,62
2024-04-25T10:00:12.666Z,71
2024-04-25T10:05:25.736Z,68
2024-04-25T10:15:51.634Z,86
2024-04-25T10:21:04.797Z,92
2024-04-25T10:26:17.822Z,105
2024-04-25T10:31:30.555Z,94
2024-04-25T10:36:43.458Z,90
2024-04-25T10:41:56.281Z,81
2024-04-25T10:47:09.030Z,79
2024-04-25T10:52:21.751Z,86
2024-04-25T10:57:34.705Z,75
2024-04-25T11:02:47.426Z,84
2024-04-25T11:08:00.032Z,113
2024-04-25T11:13:11.949Z,94
2024-04-25T11:18:24.811Z,79
2024-04-25T11:23:37.714Z,99
2024-04-25T11:28:50.561Z,92
2024-04-25T11:34:03.475Z,74
2024-04-25T11:44:29.425Z,61
2024-04-25T11:49:42.223Z,65
2024-04-25T11:54:54.767Z,62
2024-04-25T12:00:07.441Z,76
2024-04-25T12:05:20.015Z,75
2024-04-25T12:10:38.895Z,69
2024-04-25T12:15:51.826Z,84
2024-04-25T12:21:04.961Z,78
2024-04-25T12:26:17.859Z,76
2024-04-25T12:31:30.682Z,85
2024-04-25T12:36:43.801Z,84
2024-04-25T12:41:57.090Z,94
2024-04-25T12:47:10.032Z,93
2024-04-25T12:52:22.839Z,94
2024-04-25T12:57:35.436Z,95
2024-04-25T13:02:48.205Z,69
2024-04-25T13:08:00.771Z,82
2024-04-25T13:13:13.266Z,84
2024-04-25T13:18:26.155Z,94
2024-04-25T13:23:38.942Z,82
2024-04-25T13:28:52.172Z,95
2024-04-25T13:34:05.399Z,83
2024-04-25T13:39:18.480Z,100
2024-04-25T13:44:31.312Z,104
2024-04-25T13:49:44.364Z,97
2024-04-25T13:54:57.248Z,111
2024-04-25T14:00:10.210Z,97
2024-04-25T14:05:22.790Z,84
2024-04-25T14:10:35.253Z,83
2024-04-25T14:15:53.883Z,101
2024-04-25T14:21:06.494Z,97
2024-04-25T14:26:19.104Z,82
2024-04-25T14:31:31.733Z,101
2024-04-25T14:36:44.972Z,94
2024-04-25T14:41:58.123Z,101
2024-04-25T14:47:10.887Z,93
2024-04-25T14:52:23.363Z,97
2024-04-25T14:57:35.698Z,93
2024-04-25T15:02:48.075Z,91
2024-04-25T15:08:00.722Z,73
2024-04-25T15:13:13.426Z,87
2024-04-25T15:18:26.017Z,88
2024-04-25T15:23:38.836Z,75
2024-04-25T15:28:51.502Z,89
2024-04-25T15:34:04.465Z,81
2024-04-25T15:39:17.178Z,87
2024-04-25T15:44:30.096Z,76
2024-04-25T15:49:42.862Z,90
2024-04-25T15:54:55.747Z,79
2024-04-25T16:00:08.628Z,85
2024-04-25T16:05:21.625Z,84
2024-04-25T16:10:34.543Z,60
2024-04-25T16:15:47.746Z,63
2024-04-25T16:21:00.695Z,52
2024-04-25T16:26:13.364Z,83
2024-04-25T16:31:25.938Z,73
2024-04-25T16:36:38.522Z,66
2024-04-25T16:41:51.099Z,81
2024-04-25T16:47:03.942Z,75
2024-04-25T16:52:16.924Z,73
2024-04-25T16:57:29.513Z,69
2024-04-25T17:02:41.095Z,66
2024-04-25T17:07:53.794Z,65
2024-04-25T17:13:06.381Z,59
2024-04-25T17:18:18.941Z,58
2024-04-25T17:23:31.815Z,63
2024-04-25T17:28:44.554Z,46
2024-04-25T17:33:57.316Z,45
2024-04-25T17:39:09.812Z,51
2024-04-25T17:44:22.383Z,45
2024-04-25T17:49:35.170Z,50
2024-04-25T17:54:48.117Z,53
2024-04-25T18:00:00.832Z,54
2024-04-25T18:05:13.584Z,50
2024-04-25T18:10:26.260Z,68
2024-04-25T18:15:39.496Z,49
2024-04-25T18:20:52.351Z,46
2024-04-25T18:26:05.158Z,48
2024-04-25T18:31:17.880Z,50
2024-04-25T18:36:30.600Z,45
2024-04-25T18:41:43.235Z,48
2024-04-25T18:46:55.970Z,33
2024-04-25T18:52:08.800Z,45
2024-04-25T18:57:21.591Z,44
2024-04-25T19:02:34.558Z,40
2024-04-25T19:07:47.215Z,45
2024-04-25T19:12:59.800Z,41
2024-04-25T19:18:12.806Z,37
2024-04-25T19:23:25.592Z,43
2024-04-25T19:28:38.386Z,53
2024-04-25T19:33:51.259Z,46
2024-04-25T19:39:03.761Z,49
2024-04-25T19:44:16.701Z,51
2024-04-25T19:49:28.382Z,58
2024-04-25T19:54:41.140Z,45
2024-04-25T19:59:53.986Z,41
2024-04-25T20:05:06.825Z,41
2024-04-25T20:10:19.592Z,37
2024-04-25T20:15:32.339Z,39
2024-04-25T20:20:45.198Z,36
2024-04-25T20:25:58.001Z,42
2024-04-25T20:31:10.896Z,47
2024-04-25T20:36:23.574Z,32
2024-04-25T20:41:36.257Z,42
2024-04-25T20:46:49.179Z,37
2024-04-25T20:52:02.016Z,41
2024-04-25T20:57:14.667Z,41
2024-04-25T21:02:27.506Z,48
2024-04-25T21:07:40.221Z,39
2024-04-25T21:12:52.897Z,45
2024-04-25T21:18:05.686Z,48
2024-04-25T21:23:18.485Z,48
2024-04-25T21:28:31.265Z,43
2024-04-25T21:33:44.073Z,45
2024-04-25T21:44:09.587Z,36
2024-04-25T21:49:22.480Z,36
2024-04-25T21:54:35.245Z,34
2024-04-25T21:59:47.979Z,38
2024-04-25T22:05:00.679Z,30
2024-04-25T22:10:13.433Z,25
2024-04-25T22:15:38.261Z,37
2024-04-25T22:21:04.162Z,37
2024-04-25T22:26:30.053Z,31
2024-04-25T22:31:54.935Z,33
2024-04-25T22:37:07.728Z,27
2024-04-25T22:42:20.581Z,29
2024-04-25T22:47:33.257Z,32
2024-04-25T22:52:52.109Z,27
2024-04-25T22:58:04.999Z,35
2024-04-25T23:03:17.714Z,36
2024-04-25T23:08:30.603Z,35
2024-04-25T23:13:43.450Z,32
2024-04-25T23:18:56.226Z,24
2024-04-25T23:24:09.193Z,23
2024-04-25T23:29:21.941Z,23
2024-04-25T23:34:34.916Z,21
2024-04-25T23:39:47.717Z,25
2024-04-25T23:45:00.495Z,23
2024-04-25T23:50:13.195Z,31
2024-04-25T23:55:26.148Z,33
